createdAt,value
2018-06-18T00:02:14.935Z,16.20
2018-06-18T00:04:43.355Z,16.20
2018-06-18T00:07:11.848Z,16.10
2018-06-18T00:09:40.313Z,16.10
2018-06-18T00:12:08.795Z,16.10
2018-06-18T00:14:37.255Z,16.10
2018-06-18T00:17:05.725Z,16.10
2018-06-18T00:19:34.150Z,16.20
2018-06-18T00:22:02.577Z,16.20
2018-06-18T00:24:31.024Z,16.10
2018-06-18T00:26:59.642Z,16.10
2018-06-18T00:29:28.260Z,16.10
2018-06-18T00:31:56.757Z,16.10
2018-06-18T00:34:25.203Z,16.10
2018-06-18T00:36:53.671Z,16.10
2018-06-18T00:39:22.124Z,16.10
2018-06-18T00:41:50.589Z,16.10
2018-06-18T00:44:19.015Z,16.10
2018-06-18T00:46:47.434Z,16.10
2018-06-18T00:49:15.956Z,16.10
2018-06-18T00:51:44.396Z,16.20
2018-06-18T00:54:12.917Z,16.20
2018-06-18T00:56:41.406Z,16.10
2018-06-18T00:59:09.854Z,16.10
2018-06-18T01:01:38.389Z,16.20
2018-06-18T01:04:06.858Z,16.20
2018-06-18T01:06:35.303Z,16.20
2018-06-18T01:09:05.272Z,16.20
2018-06-18T01:11:33.760Z,16.20
2018-06-18T01:14:02.235Z,16.10
2018-06-18T01:16:30.678Z,16.10
2018-06-18T01:18:59.374Z,16.20
2018-06-18T01:21:27.892Z,16.20
2018-06-18T01:23:59.245Z,16.20
2018-06-18T01:26:27.862Z,16.20
2018-06-18T01:28:56.513Z,16.20
2018-06-18T01:33:55.949Z,16.20
2018-06-18T01:36:24.451Z,16.20
2018-06-18T01:38:52.885Z,16.20
2018-06-18T01:41:21.832Z,16.20
2018-06-18T01:43:50.328Z,16.20
2018-06-18T01:46:18.804Z,16.30
2018-06-18T01:48:47.250Z,16.30
2018-06-18T01:51:15.752Z,16.30
2018-06-18T01:53:44.245Z,16.30
2018-06-18T01:56:12.687Z,16.20
2018-06-18T01:58:41.150Z,16.20
2018-06-18T02:01:10.233Z,16.20
2018-06-18T02:03:38.716Z,16.20
2018-06-18T02:06:07.251Z,16.20
2018-06-18T02:08:35.735Z,16.20
2018-06-18T02:11:04.405Z,16.20
2018-06-18T02:13:32.992Z,16.20
2018-06-18T02:16:01.523Z,16.20
2018-06-18T02:18:29.985Z,16.20
2018-06-18T02:20:58.440Z,16.20
2018-06-18T02:23:26.912Z,16.30
2018-06-18T02:25:55.390Z,16.20
2018-06-18T02:28:29.120Z,16.20
2018-06-18T02:31:03.069Z,16.30
2018-06-18T02:33:36.877Z,16.20
2018-06-18T02:36:10.762Z,16.20
2018-06-18T02:38:44.527Z,16.30
2018-06-18T02:41:13.053Z,16.30
2018-06-18T02:43:41.748Z,16.30
2018-06-18T02:46:10.262Z,16.30
2018-06-18T02:48:38.691Z,16.30
2018-06-18T02:51:07.437Z,16.30
2018-06-18T02:53:35.993Z,16.20
2018-06-18T02:56:04.621Z,16.20
2018-06-18T02:58:33.086Z,16.20
2018-06-18T03:01:01.558Z,16.30
2018-06-18T03:03:30.070Z,16.30
2018-06-18T03:05:58.513Z,16.20
2018-06-18T03:08:27.001Z,16.30
2018-06-18T03:10:55.515Z,16.30
2018-06-18T03:13:24.039Z,16.30
2018-06-18T03:15:52.507Z,16.30
2018-06-18T03:18:26.281Z,16.30
2018-06-18T03:21:00.501Z,16.30
2018-06-18T03:23:34.273Z,16.30
2018-06-18T03:26:07.994Z,16.30
2018-06-18T03:28:42.007Z,16.30
2018-06-18T03:31:10.481Z,16.30
2018-06-18T03:33:38.964Z,16.30
2018-06-18T03:36:08.500Z,16.40
2018-06-18T03:38:36.977Z,16.40
2018-06-18T03:41:05.433Z,16.40
2018-06-18T03:43:36.167Z,16.40
2018-06-18T03:46:04.913Z,16.40
2018-06-18T03:48:33.377Z,16.40
2018-06-18T03:51:01.787Z,16.50
2018-06-18T03:53:30.210Z,16.40
2018-06-18T03:56:00.110Z,16.40
2018-06-18T03:58:28.881Z,16.40
2018-06-18T04:01:14.226Z,16.50
2018-06-18T04:03:48.094Z,16.50
2018-06-18T04:06:21.945Z,16.50
2018-06-18T04:08:55.762Z,16.50
2018-06-18T04:11:29.742Z,16.50
2018-06-18T04:13:58.206Z,16.50
2018-06-18T04:16:26.658Z,16.50
2018-06-18T04:18:55.165Z,16.50
2018-06-18T04:21:23.621Z,16.60
2018-06-18T04:23:52.092Z,16.60
2018-06-18T04:26:20.585Z,16.60
2018-06-18T04:28:49.032Z,16.70
2018-06-18T04:31:17.480Z,16.70
2018-06-18T04:33:53.922Z,16.70
2018-06-18T04:36:22.347Z,16.70
2018-06-18T04:38:50.813Z,16.70
2018-06-18T04:41:19.270Z,16.70
2018-06-18T04:43:53.004Z,16.80
2018-06-18T04:46:26.743Z,16.70
2018-06-18T04:49:00.678Z,16.70
2018-06-18T04:51:29.135Z,16.70
2018-06-18T04:53:57.551Z,16.70
2018-06-18T04:56:26.067Z,16.70
2018-06-18T04:58:54.422Z,16.80
2018-06-18T05:01:25.936Z,16.80
2018-06-18T05:03:54.702Z,16.80
2018-06-18T05:06:24.094Z,16.90
2018-06-18T05:09:16.210Z,16.90
2018-06-18T05:11:44.697Z,17.00
2018-06-18T05:14:13.156Z,17.10
2018-06-18T05:16:41.596Z,17.10
2018-06-18T05:21:38.276Z,17.10
2018-06-18T05:24:07.349Z,17.20
2018-06-18T05:26:38.485Z,17.20
2018-06-18T05:29:06.922Z,17.30
2018-06-18T05:31:35.362Z,17.40
2018-06-18T05:34:03.781Z,17.30
2018-06-18T05:36:32.265Z,17.30
2018-06-18T05:39:00.718Z,17.30
2018-06-18T05:41:29.157Z,17.40
2018-06-18T05:43:57.610Z,17.40
2018-06-18T05:46:26.072Z,17.40
2018-06-18T05:48:54.589Z,17.50
2018-06-18T05:51:22.979Z,17.50
2018-06-18T05:53:51.408Z,17.60
2018-06-18T05:56:19.852Z,17.70
2018-06-18T05:58:48.313Z,17.80
2018-06-18T06:01:16.732Z,18.00
2018-06-18T06:03:45.322Z,18.20
2018-06-18T06:06:14.154Z,18.40
2018-06-18T06:08:42.625Z,18.50
2018-06-18T06:11:11.029Z,18.40
2018-06-18T06:13:39.440Z,18.30
2018-06-18T06:16:07.882Z,18.40
2018-06-18T06:18:36.296Z,18.60
2018-06-18T06:21:07.856Z,18.70
2018-06-18T06:23:36.296Z,18.80
2018-06-18T06:28:34.888Z,19.00
2018-06-18T06:31:04.316Z,19.30
2018-06-18T06:33:33.617Z,19.50
2018-06-18T06:36:02.717Z,19.50
2018-06-18T06:38:31.435Z,19.90
2018-06-18T06:40:59.932Z,20.20
2018-06-18T06:43:28.364Z,20.50
2018-06-18T06:45:56.836Z,20.60
2018-06-18T06:48:25.296Z,20.80
2018-06-18T06:50:54.021Z,20.70
2018-06-18T06:53:22.429Z,20.80
2018-06-18T06:55:50.889Z,20.30
2018-06-18T06:58:19.362Z,20.10
2018-06-18T07:00:47.800Z,20.00
2018-06-18T07:03:16.217Z,19.90
2018-06-18T07:05:44.681Z,19.60
2018-06-18T07:08:13.117Z,19.50
2018-06-18T07:10:41.608Z,19.30
2018-06-18T07:13:10.025Z,19.30
2018-06-18T07:15:38.458Z,19.40
2018-06-18T07:18:06.928Z,19.30
2018-06-18T07:20:35.385Z,19.10
2018-06-18T07:23:03.830Z,19.10
2018-06-18T07:25:32.248Z,19.10
2018-06-18T07:28:00.657Z,19.10
2018-06-18T07:30:29.700Z,19.10
2018-06-18T07:32:58.126Z,19.40
2018-06-18T07:35:26.649Z,19.60
2018-06-18T07:37:55.086Z,19.70
2018-06-18T07:40:23.510Z,19.90
2018-06-18T07:42:52.051Z,20.00
2018-06-18T07:45:20.485Z,20.30
2018-06-18T07:47:49.009Z,20.90
2018-06-18T07:50:17.481Z,20.80
2018-06-18T07:52:45.947Z,20.60
2018-06-18T07:55:14.419Z,21.00
2018-06-18T08:00:11.434Z,21.00
2018-06-18T08:05:08.095Z,21.20
2018-06-18T08:07:36.588Z,21.20
2018-06-18T08:10:05.223Z,21.10
2018-06-18T08:12:33.810Z,21.20
2018-06-18T08:15:08.736Z,21.50
2018-06-18T08:17:37.241Z,21.30
2018-06-18T08:20:05.857Z,21.00
2018-06-18T08:22:34.296Z,20.90
2018-06-18T08:25:02.783Z,20.90
2018-06-18T08:27:31.685Z,20.90
2018-06-18T08:30:00.193Z,21.00
2018-06-18T08:32:28.729Z,21.20
2018-06-18T08:34:57.341Z,21.30
2018-06-18T08:37:25.721Z,21.40
2018-06-18T08:39:54.410Z,21.60
2018-06-18T08:42:22.870Z,21.00
2018-06-18T08:44:51.363Z,21.00
2018-06-18T08:47:20.131Z,20.60
2018-06-18T08:49:53.952Z,21.00
2018-06-18T08:52:27.766Z,21.50
2018-06-18T08:55:01.477Z,22.20
2018-06-18T08:57:35.151Z,22.60
2018-06-18T09:00:09.182Z,22.80
2018-06-18T09:02:42.148Z,23.40
2018-06-18T09:05:12.406Z,23.00
2018-06-18T09:07:46.133Z,23.00
2018-06-18T09:10:14.717Z,22.70
2018-06-18T09:12:43.162Z,22.30
2018-06-18T09:15:11.576Z,22.40
2018-06-18T09:17:40.044Z,22.10
2018-06-18T09:20:08.471Z,22.00
2018-06-18T09:22:36.960Z,22.10
2018-06-18T09:25:05.426Z,21.80
2018-06-18T09:27:33.908Z,21.70
2018-06-18T09:30:08.221Z,21.90
2018-06-18T09:32:37.025Z,22.00
2018-06-18T09:35:06.644Z,22.20
2018-06-18T09:37:35.691Z,21.90
2018-06-18T09:40:05.060Z,21.60
2018-06-18T09:42:34.196Z,21.50
2018-06-18T09:45:03.540Z,21.30
2018-06-18T09:47:32.427Z,21.40
2018-06-18T09:50:06.104Z,21.50
2018-06-18T09:52:40.240Z,21.80
2018-06-18T09:55:14.263Z,22.00
2018-06-18T09:57:48.221Z,22.10
2018-06-18T10:00:32.182Z,22.20
2018-06-18T10:03:00.715Z,22.40
2018-06-18T10:05:29.189Z,22.70
2018-06-18T10:07:57.636Z,22.90
2018-06-18T10:10:26.139Z,23.00
2018-06-18T10:12:54.590Z,22.90
2018-06-18T10:15:23.174Z,22.60
2018-06-18T10:17:51.608Z,22.70
2018-06-18T10:20:20.206Z,22.80
2018-06-18T10:22:48.660Z,22.90
2018-06-18T10:25:17.160Z,22.70
2018-06-18T10:27:45.641Z,22.70
2018-06-18T10:30:14.152Z,23.10
2018-06-18T10:32:47.900Z,23.40
2018-06-18T10:35:21.543Z,23.80
2018-06-18T10:39:57.671Z,24.20
2018-06-18T10:42:31.753Z,24.20
2018-06-18T10:47:28.540Z,24.80
2018-06-18T10:49:57.161Z,24.90
2018-06-18T10:52:25.680Z,24.50
2018-06-18T10:54:54.270Z,24.20
2018-06-18T10:57:22.690Z,23.80
2018-06-18T10:59:51.114Z,23.40
2018-06-18T11:02:19.747Z,23.10
2018-06-18T11:04:54.186Z,23.10
2018-06-18T11:07:22.756Z,22.80
2018-06-18T11:09:51.205Z,22.70
2018-06-18T11:12:19.831Z,22.70
2018-06-18T11:14:48.517Z,22.60
2018-06-18T11:17:22.689Z,22.60
2018-06-18T11:20:57.742Z,22.50
2018-06-18T11:23:31.804Z,22.50
2018-06-18T11:26:05.601Z,22.50
2018-06-18T11:28:34.313Z,22.40
2018-06-18T11:31:02.791Z,22.40
2018-06-18T11:33:31.224Z,22.30
2018-06-18T11:35:59.676Z,22.40
2018-06-18T11:38:28.077Z,22.40
2018-06-18T11:40:56.494Z,22.30
2018-06-18T11:43:25.296Z,22.30
2018-06-18T11:45:53.888Z,22.30
2018-06-18T11:48:23.010Z,22.40
2018-06-18T11:50:51.861Z,22.50
2018-06-18T11:53:20.897Z,22.90
2018-06-18T11:55:49.720Z,23.30
2018-06-18T11:58:23.483Z,23.70
2018-06-18T12:00:57.490Z,23.80
2018-06-18T12:03:31.339Z,24.10
2018-06-18T12:06:05.128Z,24.00
2018-06-18T12:08:39.123Z,23.80
2018-06-18T12:11:07.607Z,24.40
2018-06-18T12:13:36.372Z,24.10
2018-06-18T12:16:05.027Z,23.80
2018-06-18T12:18:35.519Z,23.60
2018-06-18T12:21:04.067Z,23.60
2018-06-18T12:23:32.557Z,23.60
2018-06-18T12:26:01.343Z,23.40
2018-06-18T12:28:30.352Z,23.50
2018-06-18T12:30:58.874Z,23.30
2018-06-18T12:33:27.523Z,23.10
2018-06-18T12:35:56.340Z,23.10
2018-06-18T12:38:25.117Z,23.20
2018-06-18T12:40:53.987Z,23.50
2018-06-18T12:45:58.698Z,23.40
2018-06-18T12:48:32.730Z,23.40
2018-06-18T12:51:06.699Z,23.30
2018-06-18T12:53:40.766Z,23.30
2018-06-18T12:56:14.608Z,23.40
2018-06-18T12:58:43.133Z,23.30
2018-06-18T13:01:13.465Z,23.40
2018-06-18T13:03:41.959Z,23.90
2018-06-18T13:06:10.501Z,24.00
2018-06-18T13:08:39.448Z,24.30
2018-06-18T13:11:08.216Z,24.80
2018-06-18T13:13:40.392Z,24.80
2018-06-18T13:16:09.112Z,24.70
2018-06-18T13:18:38.166Z,24.80
2018-06-18T13:21:08.256Z,24.60
2018-06-18T13:23:39.951Z,24.40
2018-06-18T13:26:08.402Z,24.00
2018-06-18T13:28:37.768Z,23.90
2018-06-18T13:31:06.403Z,24.10
2018-06-18T13:33:34.939Z,23.90
2018-06-18T13:36:03.401Z,23.70
2018-06-18T13:39:37.989Z,23.70
2018-06-18T13:44:45.535Z,23.70
2018-06-18T13:47:19.304Z,23.70
2018-06-18T13:49:56.938Z,23.80
2018-06-18T13:52:26.775Z,23.80
2018-06-18T13:54:55.600Z,23.80
2018-06-18T13:57:26.829Z,23.70
2018-06-18T13:59:55.586Z,23.50
2018-06-18T14:02:27.287Z,23.20
2018-06-18T14:04:56.901Z,23.10
2018-06-18T14:07:25.477Z,23.00
2018-06-18T14:12:22.280Z,22.70
2018-06-18T14:14:50.796Z,22.50
2018-06-18T14:17:19.382Z,22.40
2018-06-18T14:19:53.475Z,22.40
2018-06-18T14:22:22.310Z,22.40
2018-06-18T14:24:50.744Z,22.70
2018-06-18T14:27:19.335Z,22.80
2018-06-18T14:29:53.097Z,22.90
2018-06-18T14:32:27.133Z,23.00
2018-06-18T14:36:01.916Z,23.10
2018-06-18T14:38:35.722Z,23.00
2018-06-18T14:41:10.184Z,23.30
2018-06-18T14:43:39.070Z,23.40
2018-06-18T14:46:07.647Z,23.50
2018-06-18T14:48:36.148Z,23.60
2018-06-18T14:51:04.631Z,23.80
2018-06-18T14:53:33.081Z,23.80
2018-06-18T14:56:10.566Z,23.60
2018-06-18T14:58:39.323Z,23.80
2018-06-18T15:01:07.874Z,23.70
2018-06-18T15:03:36.351Z,23.60
2018-06-18T15:06:04.826Z,24.00
2018-06-18T15:08:33.547Z,24.10
2018-06-18T15:11:02.004Z,24.10
2018-06-18T15:13:36.196Z,24.20
2018-06-18T15:16:10.153Z,24.50
2018-06-18T15:18:38.608Z,24.80
2018-06-18T15:21:07.146Z,24.70
2018-06-18T15:23:35.562Z,24.50
2018-06-18T15:26:04.102Z,24.40
2018-06-18T15:28:32.702Z,24.30
2018-06-18T15:31:02.509Z,23.90
2018-06-18T15:33:30.937Z,24.10
2018-06-18T15:35:59.438Z,24.20
2018-06-18T15:38:28.321Z,24.20
2018-06-18T15:40:56.908Z,24.30
2018-06-18T15:43:25.849Z,23.90
2018-06-18T15:45:54.484Z,23.70
2018-06-18T15:48:29.322Z,23.90
2018-06-18T15:50:57.828Z,23.80
2018-06-18T15:53:26.528Z,23.90
2018-06-18T15:55:55.141Z,23.80
2018-06-18T15:58:23.792Z,23.80
2018-06-18T16:00:52.357Z,23.70
2018-06-18T16:03:20.875Z,23.80
2018-06-18T16:05:49.793Z,23.90
2018-06-18T16:08:19.911Z,23.90
2018-06-18T16:10:48.626Z,23.90
2018-06-18T16:13:17.140Z,23.90
2018-06-18T16:15:45.594Z,23.90
2018-06-18T16:18:14.271Z,24.10
2018-06-18T16:20:42.731Z,24.20
2018-06-18T16:23:11.349Z,24.10
2018-06-18T16:25:39.830Z,24.00
2018-06-18T16:28:08.304Z,24.10
2018-06-18T16:30:36.813Z,23.90
2018-06-18T16:33:05.312Z,23.90
2018-06-18T16:35:33.946Z,23.80
2018-06-18T16:38:02.589Z,23.90
2018-06-18T16:40:31.113Z,24.10
2018-06-18T16:42:59.744Z,24.00
2018-06-18T16:45:28.242Z,23.80
2018-06-18T16:47:56.694Z,23.70
2018-06-18T16:50:25.185Z,23.60
2018-06-18T16:52:53.710Z,23.50
2018-06-18T16:55:22.337Z,23.50
2018-06-18T16:57:50.859Z,23.50
2018-06-18T17:00:19.609Z,23.60
2018-06-18T17:02:48.122Z,23.50
2018-06-18T17:05:16.633Z,23.30
2018-06-18T17:07:45.178Z,23.30
2018-06-18T17:10:13.614Z,23.30
2018-06-18T17:12:42.182Z,23.40
2018-06-18T17:15:10.935Z,23.30
2018-06-18T17:17:39.432Z,23.30
2018-06-18T17:20:07.967Z,23.30
2018-06-18T17:22:37.584Z,23.30
2018-06-18T17:25:08.380Z,23.40
2018-06-18T17:27:37.294Z,23.40
2018-06-18T17:30:05.876Z,23.30
2018-06-18T17:32:35.492Z,23.30
2018-06-18T17:35:04.065Z,23.20
2018-06-18T17:37:32.652Z,23.10
2018-06-18T17:40:01.097Z,23.10
2018-06-18T17:42:33.856Z,23.20
2018-06-18T17:45:02.604Z,23.30
2018-06-18T17:47:31.569Z,23.40
2018-06-18T17:50:00.075Z,23.30
2018-06-18T17:52:28.569Z,23.20
2018-06-18T17:54:57.221Z,23.00
2018-06-18T17:57:25.867Z,23.00
2018-06-18T17:59:54.381Z,22.90
2018-06-18T18:02:23.997Z,22.80
2018-06-18T18:05:13.382Z,22.90
2018-06-18T18:07:41.989Z,23.00
2018-06-18T18:10:14.239Z,23.00
2018-06-18T18:12:42.892Z,23.00
2018-06-18T18:15:13.912Z,22.90
2018-06-18T18:17:42.709Z,22.70
2018-06-18T18:20:11.246Z,22.60
2018-06-18T18:25:12.270Z,22.40
2018-06-18T18:27:44.416Z,22.30
2018-06-18T18:30:16.294Z,22.30
2018-06-18T18:32:44.835Z,22.30
2018-06-18T18:35:13.366Z,22.30
2018-06-18T18:37:41.860Z,22.40
2018-06-18T18:40:10.434Z,22.50
2018-06-18T18:42:38.956Z,22.60
2018-06-18T18:45:07.568Z,22.60
2018-06-18T18:47:36.187Z,22.60
2018-06-18T18:50:04.709Z,22.60
2018-06-18T18:52:35.270Z,22.60
2018-06-18T18:55:46.269Z,22.70
2018-06-18T18:58:25.921Z,22.70
2018-06-18T19:00:54.385Z,22.50
2018-06-18T19:03:25.607Z,22.30
2018-06-18T19:05:55.637Z,22.10
2018-06-18T19:08:28.432Z,22.10
2018-06-18T19:10:58.329Z,22.00
2018-06-18T19:13:30.326Z,21.80
2018-06-18T19:15:59.469Z,21.70
2018-06-18T19:18:28.188Z,21.60
2018-06-18T19:21:04.628Z,21.50
2018-06-18T19:23:33.376Z,21.40
2018-06-18T19:26:03.184Z,21.30
2018-06-18T19:28:32.337Z,21.20
2018-06-18T19:31:07.123Z,21.10
2018-06-18T19:33:49.268Z,21.00
2018-06-18T19:36:20.408Z,20.90
2018-06-18T19:38:48.844Z,20.90
2018-06-18T19:41:18.094Z,20.80
2018-06-18T19:43:46.613Z,20.70
2018-06-18T19:46:15.871Z,20.70
2018-06-18T19:48:50.801Z,20.70
2018-06-18T19:51:19.365Z,20.70
2018-06-18T19:53:47.927Z,20.70
2018-06-18T19:56:16.465Z,20.60
2018-06-18T19:58:44.894Z,20.60
2018-06-18T20:01:13.849Z,20.60
2018-06-18T20:03:42.288Z,20.60
2018-06-18T20:06:14.390Z,20.50
2018-06-18T20:08:48.131Z,20.40
2018-06-18T20:11:16.661Z,20.40
2018-06-18T20:13:45.147Z,20.30
2018-06-18T20:16:13.647Z,20.30
2018-06-18T20:18:42.101Z,20.30
2018-06-18T20:21:10.656Z,20.20
2018-06-18T20:23:39.508Z,20.30
2018-06-18T20:26:13.988Z,20.30
2018-06-18T20:28:44.070Z,20.30
2018-06-18T20:31:12.555Z,20.30
2018-06-18T20:33:50.235Z,20.30
2018-06-18T20:36:20.316Z,20.30
2018-06-18T20:38:48.861Z,20.20
2018-06-18T20:41:17.300Z,20.20
2018-06-18T20:44:23.351Z,20.20
2018-06-18T20:46:51.845Z,20.20
2018-06-18T20:49:20.400Z,20.10
2018-06-18T20:51:49.092Z,20.00
2018-06-18T20:54:17.546Z,19.90
2018-06-18T20:56:46.130Z,19.80
2018-06-18T20:59:14.863Z,19.80
2018-06-18T21:01:43.467Z,19.70
2018-06-18T21:04:11.949Z,19.70
2018-06-18T21:06:40.463Z,19.70
2018-06-18T21:09:10.908Z,19.70
2018-06-18T21:11:39.937Z,19.70
2018-06-18T21:14:09.902Z,19.70
2018-06-18T21:16:40.330Z,19.70
2018-06-18T21:19:08.861Z,19.70
2018-06-18T21:21:37.260Z,19.70
2018-06-18T21:24:06.257Z,19.70
2018-06-18T21:26:34.733Z,19.70
2018-06-18T21:29:03.538Z,19.60
2018-06-18T21:31:32.109Z,19.60
2018-06-18T21:34:00.568Z,19.60
2018-06-18T21:36:29.057Z,19.50
2018-06-18T21:38:57.645Z,19.50
2018-06-18T21:41:26.176Z,19.50
2018-06-18T21:44:01.495Z,19.50
2018-06-18T21:46:29.965Z,19.50
2018-06-18T21:48:58.480Z,19.40
2018-06-18T21:51:26.903Z,19.40
2018-06-18T21:53:55.491Z,19.40
2018-06-18T21:56:23.951Z,19.40
2018-06-18T21:58:52.442Z,19.40
2018-06-18T22:01:41.065Z,19.30
2018-06-18T22:04:09.537Z,19.30
2018-06-18T22:06:38.347Z,19.30
2018-06-18T22:09:22.345Z,19.30
2018-06-18T22:11:53.973Z,19.20
2018-06-18T22:14:23.421Z,19.20
2018-06-18T22:16:52.289Z,19.10
2018-06-18T22:19:21.336Z,19.10
2018-06-18T22:21:49.970Z,19.00
2018-06-18T22:26:47.310Z,18.90
2018-06-18T22:29:16.591Z,18.90
2018-06-18T22:31:45.312Z,18.90
2018-06-18T22:34:15.674Z,18.80
2018-06-18T22:36:44.121Z,18.80
2018-06-18T22:39:13.288Z,18.80
2018-06-18T22:41:42.121Z,18.70
2018-06-18T22:44:11.270Z,18.70
2018-06-18T22:46:39.752Z,18.60
2018-06-18T22:49:08.494Z,18.60
2018-06-18T22:51:37.356Z,18.50
2018-06-18T22:54:05.847Z,18.40
2018-06-18T22:56:34.321Z,18.30
2018-06-18T22:59:02.912Z,18.30
2018-06-18T23:01:31.381Z,18.20
2018-06-18T23:03:59.910Z,18.20
2018-06-18T23:06:28.471Z,18.20
2018-06-18T23:08:56.956Z,18.20
2018-06-18T23:11:25.438Z,18.10
2018-06-18T23:13:54.159Z,18.00
2018-06-18T23:16:22.739Z,18.00
2018-06-18T23:18:51.208Z,18.00
2018-06-18T23:21:19.686Z,17.90
2018-06-18T23:23:48.204Z,18.00
2018-06-18T23:26:16.667Z,17.90
2018-06-18T23:28:51.075Z,17.80
2018-06-18T23:31:19.554Z,17.80
2018-06-18T23:33:48.021Z,17.80
2018-06-18T23:36:16.488Z,17.70
2018-06-18T23:38:44.979Z,17.70
2018-06-18T23:41:13.523Z,17.70
2018-06-18T23:43:41.967Z,17.60
2018-06-18T23:46:10.477Z,17.60
2018-06-18T23:48:38.932Z,17.50
2018-06-18T23:51:07.362Z,17.50
2018-06-18T23:53:35.871Z,17.50
2018-06-18T23:56:04.368Z,17.40
2018-06-18T23:58:33.069Z,17.30
